Star Tannery, VA

2:51 AM EDT on April 26, 2017 (GMT -0400)
614 red bud rd strasburg, va | | Change Station

Elev 673 ft 39.02 °N, 78.37 °W | Updated 10 seconds ago

Fog
Fog
54.0 °F
Feels Like 54.0 °F
N
0.0
Wind Variable Wind from West

Today
High -- | Low -- °F
--% Chance of Precip.
Yesterday
High -- | Low -- °F
Precip. -- in
Pressure 29.75 in
Visibility 2.5 miles
Clouds Overcast 400 ft
Dew Point 53 °F
Humidity 98%
Rainfall 0.00 in
Snow Depth Not available.
6:21 AM 8:02 PM
Waning Crescent, 0% visible
METAR KOKV 260635Z AUTO 33004KT 2 1/2SM BR OVC004 12/12 A2975 RMK AO2
Pressure 29.75 in
Visibility 2.5 miles
Clouds Overcast 400 ft
Dew Point 53 °F
Humidity 98%
Rainfall 0.00 in
Snow Depth Not available.
6:21 AM 8:02 PM
Waning Crescent, 0% visible
METAR KOKV 260635Z AUTO 33004KT 2 1/2SM BR OVC004 12/12 A2975 RMK AO2

Get Severe Weather Alerts

Thanks for signing up!

Be on the lookout for a verification email in your inbox.

You'll start receiving the daily forecast at 8 AM.

×

10-Day Weather Forecast

Almanac

Astronomy

Apr. 26, 2017 Rise Set
Actual Time
Civil Twilight
Nautical Twilight
Astronomical Twilight
Moon
Length of Visible Light
Length of Day
Tomorrow will be .
, % of the Moon is Illuminated

Today's Extremes

State Highs State Lows

Community

WunderPhotos

WunderBlog® & News

Nearby

Air Quality

  Air Quality AQ Index Pollutant
Not available.

Snow Depth

Station Depth Elevation

Earthquake Activity

City Distance Mag. Time & Date
Minimum magnitude displayed is 2.5.

Coastal Water Temperatures

Place Temperature

Stations

Nearby Weather Stations

Station Location Temp. Windchill Dew Point Humidity Wind Precip. Elev Updated Type
                   

Watches & Warnings

There are currently no watches in effect.